createdAt,value
2023-01-17T00:16:14.795Z,991.5
2023-01-17T00:45:04.372Z,991.58
2023-01-17T01:14:00.966Z,991.52
2023-01-17T01:42:55.937Z,991.65
2023-01-17T02:15:51.983Z,991.68
2023-01-17T02:44:29.131Z,991.58
2023-01-17T03:13:17.195Z,991.33
2023-01-17T03:42:06.310Z,991.23
2023-01-17T04:10:51.324Z,991.29
2023-01-17T04:39:37.382Z,991.09
2023-01-17T05:08:19.940Z,990.75
2023-01-17T05:37:04.734Z,990.23
2023-01-17T06:05:38.923Z,989.78
2023-01-17T06:34:17.889Z,989.39
2023-01-17T07:02:58.146Z,989.35
2023-01-17T07:31:41.764Z,989.22
2023-01-17T08:00:20.043Z,989.27
2023-01-17T08:29:06.015Z,988.87
2023-01-17T08:57:48.004Z,988.73
2023-01-17T09:26:31.070Z,988.75
2023-01-17T09:55:16.585Z,988.8
2023-01-17T10:24:02.359Z,988.7
2023-01-17T10:52:28.212Z,988.25
2023-01-17T11:21:13.130Z,987.53
2023-01-17T11:49:39.004Z,986.89
2023-01-17T12:18:19.959Z,986.43
2023-01-17T12:46:58.759Z,986.15
2023-01-17T13:15:43.812Z,985.96
2023-01-17T13:44:25.863Z,985.98
2023-01-17T14:13:08.152Z,986.07
2023-01-17T14:41:45.708Z,985.97
2023-01-17T15:10:28.225Z,986.18
2023-01-17T15:39:12.369Z,986.36
2023-01-17T16:07:51.275Z,986.44
2023-01-17T16:36:29.835Z,986.57
2023-01-17T17:05:10.731Z,986.8
2023-01-17T17:33:48.680Z,986.95
2023-01-17T18:02:27.502Z,986.94
2023-01-17T18:31:06.903Z,987.08
2023-01-17T18:59:45.005Z,987.16
2023-01-17T19:28:23.143Z,987.37
2023-01-17T19:57:01.464Z,987.41
2023-01-17T20:25:50.195Z,987.46
2023-01-17T20:54:35.785Z,987.46
2023-01-17T21:23:21.261Z,987.58
2023-01-17T21:52:05.950Z,987.76
2023-01-17T22:20:34.822Z,987.82
2023-01-17T22:49:20.448Z,988.09
2023-01-17T23:18:06.692Z,988.13
2023-01-17T23:46:49.191Z,988.22
